createdAt,value
2023-05-05T00:01:58.295Z,62.39
2023-05-05T00:04:43.337Z,62.61
2023-05-05T00:07:28.788Z,63.03
2023-05-05T00:10:13.499Z,63.43
2023-05-05T00:12:58.810Z,63.25
2023-05-05T00:15:45.847Z,63.62
2023-05-05T00:18:31.667Z,63.66
2023-05-05T00:21:16.593Z,64.07
2023-05-05T00:24:01.464Z,63.91
2023-05-05T00:26:46.247Z,64.13
2023-05-05T00:29:31.342Z,64.43
2023-05-05T00:32:16.499Z,64.46
2023-05-05T00:35:01.252Z,64.97
2023-05-05T00:37:46.288Z,65.18
2023-05-05T00:40:31.474Z,65.36
2023-05-05T00:43:16.334Z,65.41
2023-05-05T00:46:07.110Z,64.78
2023-05-05T00:48:52.653Z,65.56
2023-05-05T00:51:37.475Z,65.38
2023-05-05T00:54:22.860Z,65.63
2023-05-05T00:57:08.409Z,66.02
2023-05-05T00:59:54.680Z,65.99
2023-05-05T01:02:40.392Z,66.72
2023-05-05T01:05:27.686Z,66.63
2023-05-05T01:08:20.567Z,67.45
2023-05-05T01:11:14.598Z,67.32
2023-05-05T01:14:28.978Z,67.84
2023-05-05T01:17:18.467Z,67.16
2023-05-05T01:20:23.582Z,67.95
2023-05-05T01:23:12.693Z,67.05
2023-05-05T01:26:21.934Z,68.09
2023-05-05T01:29:31.286Z,67.41
2023-05-05T01:32:22.116Z,67.96
2023-05-05T01:35:37.223Z,68.03
2023-05-05T01:38:28.133Z,68.16
2023-05-05T01:41:19.544Z,67.52
2023-05-05T01:44:06.129Z,67.54
2023-05-05T01:46:52.503Z,67.86
2023-05-05T01:49:38.419Z,67.68
2023-05-05T01:52:24.117Z,67.69
2023-05-05T01:55:10.898Z,67.46
2023-05-05T01:57:58.587Z,67.06
2023-05-05T02:00:44.827Z,67.64
2023-05-05T02:03:33.898Z,67.88
2023-05-05T02:06:22.083Z,68.13
2023-05-05T02:09:11.997Z,68.57
2023-05-05T02:12:00.546Z,68.87
2023-05-05T02:14:46.949Z,67.72
2023-05-05T02:17:33.620Z,68.07
2023-05-05T02:20:19.824Z,68.19
2023-05-05T02:23:08.623Z,68.12
2023-05-05T02:25:57.355Z,68.81
2023-05-05T02:28:55.022Z,68.64
2023-05-05T02:31:47.247Z,68.69
2023-05-05T02:34:38.230Z,69.14
2023-05-05T02:37:27.292Z,69.76
2023-05-05T02:40:15.310Z,69.77
2023-05-05T02:43:06.060Z,70.11
2023-05-05T02:45:52.025Z,70.33
2023-05-05T02:48:37.240Z,69.73
2023-05-05T02:51:22.095Z,69.79
2023-05-05T02:54:07.204Z,70.61
2023-05-05T02:56:54.802Z,70.19
2023-05-05T02:59:56.486Z,70.65
2023-05-05T03:02:59.203Z,70.12
2023-05-05T03:06:00.913Z,70.54
2023-05-05T03:09:08.785Z,70.01
2023-05-05T03:12:02.004Z,69.73
2023-05-05T03:14:49.184Z,69.92
2023-05-05T03:17:34.896Z,70.27
2023-05-05T03:20:21.627Z,69.87
2023-05-05T03:23:07.172Z,69.83
2023-05-05T03:25:52.649Z,69.94
2023-05-05T03:28:37.691Z,70.22
2023-05-05T03:31:22.489Z,69.87
2023-05-05T03:34:08.710Z,69.90
2023-05-05T03:36:53.786Z,68.98
2023-05-05T03:39:39.165Z,69.11
2023-05-05T03:42:25.248Z,68.60
2023-05-05T03:45:10.892Z,68.11
2023-05-05T03:47:55.716Z,69.80
2023-05-05T03:50:40.546Z,69.83
2023-05-05T03:53:25.816Z,69.81
2023-05-05T03:56:10.683Z,69.83
2023-05-05T03:58:55.530Z,70.35
2023-05-05T04:01:40.239Z,70.36
2023-05-05T04:04:25.456Z,69.42
2023-05-05T04:07:11.096Z,70.06
2023-05-05T04:09:56.157Z,70.38
2023-05-05T04:12:41.242Z,70.35
2023-05-05T04:15:26.237Z,70.35
2023-05-05T04:18:11.403Z,69.96
2023-05-05T04:20:56.340Z,69.87
2023-05-05T04:23:41.263Z,70.57
2023-05-05T04:26:28.178Z,69.68
2023-05-05T04:29:13.375Z,69.72
2023-05-05T04:31:58.119Z,70.01
2023-05-05T04:34:43.755Z,69.89
2023-05-05T04:37:28.988Z,69.47
2023-05-05T04:40:13.791Z,69.82
2023-05-05T04:42:58.450Z,69.88
2023-05-05T04:45:52.848Z,69.39
2023-05-05T04:48:38.414Z,69.69
2023-05-05T04:51:23.833Z,69.31
2023-05-05T04:54:08.934Z,69.00
2023-05-05T04:56:54.491Z,69.69
2023-05-05T04:59:39.315Z,69.31
2023-05-05T05:02:24.223Z,69.30
2023-05-05T05:05:10.770Z,69.54
2023-05-05T05:07:55.767Z,69.78
2023-05-05T05:10:40.629Z,69.61
2023-05-05T05:13:25.721Z,68.76
2023-05-05T05:16:11.393Z,69.31
2023-05-05T05:18:57.017Z,69.02
2023-05-05T05:21:42.134Z,68.75
2023-05-05T05:24:27.107Z,68.87
2023-05-05T05:27:12.289Z,68.51
2023-05-05T05:29:57.369Z,69.02
2023-05-05T05:32:42.586Z,68.24
2023-05-05T05:35:27.926Z,68.20
2023-05-05T05:38:12.925Z,67.66
2023-05-05T05:40:58.668Z,67.32
2023-05-05T05:43:43.432Z,66.87
2023-05-05T05:46:28.686Z,66.73
2023-05-05T05:49:13.927Z,67.02
2023-05-05T05:51:58.682Z,67.01
2023-05-05T05:54:43.462Z,66.66
2023-05-05T05:57:28.450Z,66.90
2023-05-05T06:00:14.085Z,66.66
2023-05-05T06:02:59.037Z,66.86
2023-05-05T06:05:47.270Z,66.19
2023-05-05T06:08:34.301Z,66.36
2023-05-05T06:11:20.337Z,65.55
2023-05-05T06:14:05.549Z,65.50
2023-05-05T06:16:52.093Z,65.67
2023-05-05T06:19:39.667Z,65.42
2023-05-05T06:22:25.186Z,64.50
2023-05-05T06:25:11.158Z,64.36
2023-05-05T06:27:56.428Z,62.22
2023-05-05T06:30:42.407Z,62.30
2023-05-05T06:33:27.671Z,63.00
2023-05-05T06:36:12.592Z,62.62
2023-05-05T06:38:57.257Z,61.84
2023-05-05T06:41:42.145Z,61.61
2023-05-05T06:44:27.027Z,61.52
2023-05-05T06:47:11.933Z,60.22
2023-05-05T06:49:56.692Z,59.49
2023-05-05T06:52:43.661Z,58.72
2023-05-05T06:55:29.170Z,58.20
2023-05-05T06:58:14.122Z,58.67
2023-05-05T07:00:59.090Z,58.01
2023-05-05T07:03:44.632Z,57.85
2023-05-05T07:06:29.583Z,56.95
2023-05-05T07:09:16.894Z,57.20
2023-05-05T07:12:03.930Z,57.60
2023-05-05T07:14:49.050Z,56.80
2023-05-05T07:17:35.084Z,55.68
2023-05-05T07:20:19.846Z,56.55
2023-05-05T07:23:04.965Z,57.22
2023-05-05T07:25:50.943Z,56.39
2023-05-05T07:28:36.051Z,55.14
2023-05-05T07:31:21.905Z,54.71
2023-05-05T07:34:07.500Z,54.31
2023-05-05T07:36:52.499Z,53.31
2023-05-05T07:39:37.481Z,53.34
2023-05-05T07:42:22.383Z,53.64
2023-05-05T07:45:09.042Z,54.73
2023-05-05T07:47:54.902Z,54.32
2023-05-05T07:50:39.838Z,53.03
2023-05-05T07:53:24.595Z,52.33
2023-05-05T07:56:09.578Z,52.65
2023-05-05T07:58:54.879Z,52.44
2023-05-05T08:01:40.107Z,51.16
2023-05-05T08:04:25.355Z,51.51
2023-05-05T08:07:10.820Z,52.28
2023-05-05T08:09:56.634Z,51.11
2023-05-05T08:12:41.746Z,51.29
2023-05-05T08:15:26.572Z,51.72
2023-05-05T08:18:11.605Z,50.96
2023-05-05T08:20:56.869Z,50.56
2023-05-05T08:23:41.743Z,49.48
2023-05-05T08:26:26.523Z,48.86
2023-05-05T08:29:11.546Z,49.12
2023-05-05T08:31:56.495Z,47.86
2023-05-05T08:34:41.694Z,47.52
2023-05-05T08:37:26.881Z,47.52
2023-05-05T08:40:15.648Z,48.54
2023-05-05T08:43:01.716Z,48.13
2023-05-05T08:45:47.146Z,47.07
2023-05-05T08:48:33.630Z,48.99
2023-05-05T08:51:19.706Z,47.41
2023-05-05T08:54:06.896Z,47.43
2023-05-05T08:56:53.479Z,47.82
2023-05-05T08:59:38.989Z,48.28
2023-05-05T09:02:28.320Z,46.80
2023-05-05T09:05:14.011Z,46.78
2023-05-05T09:07:58.936Z,45.83
2023-05-05T09:10:44.568Z,45.94
2023-05-05T09:13:31.307Z,45.00
2023-05-05T09:16:16.284Z,45.11
2023-05-05T09:19:03.309Z,45.62
2023-05-05T09:21:51.110Z,44.91
2023-05-05T09:24:36.054Z,45.02
2023-05-05T09:27:22.904Z,43.52
2023-05-05T09:30:16.582Z,44.69
2023-05-05T09:33:03.215Z,42.19
2023-05-05T09:35:51.472Z,42.23
2023-05-05T09:38:37.124Z,40.79
2023-05-05T09:41:43.640Z,41.07
2023-05-05T09:44:39.916Z,40.25
2023-05-05T09:47:35.064Z,41.53
2023-05-05T09:50:22.041Z,39.92
2023-05-05T09:53:07.873Z,40.79
2023-05-05T09:55:54.168Z,40.06
2023-05-05T09:58:39.892Z,40.13
2023-05-05T10:01:25.146Z,40.89
2023-05-05T10:04:30.128Z,39.41
2023-05-05T10:07:24.879Z,40.17
2023-05-05T10:10:18.396Z,40.37
2023-05-05T10:13:03.348Z,38.89
2023-05-05T10:15:51.847Z,38.55
2023-05-05T10:18:41.326Z,38.69
2023-05-05T10:21:26.738Z,39.37
2023-05-05T10:24:34.163Z,38.86
2023-05-05T10:27:22.998Z,38.48
2023-05-05T10:30:13.608Z,37.68
2023-05-05T10:33:32.252Z,37.08
2023-05-05T10:36:19.860Z,38.88
2023-05-05T10:39:10.551Z,38.04
2023-05-05T10:41:59.395Z,37.41
2023-05-05T10:44:44.471Z,37.85
2023-05-05T10:47:30.593Z,37.26
2023-05-05T10:50:30.856Z,37.97
2023-05-05T10:53:23.948Z,37.04
2023-05-05T10:56:19.831Z,38.04
2023-05-05T10:59:37.312Z,36.71
2023-05-05T11:02:29.318Z,36.44
2023-05-05T11:05:21.652Z,37.69
2023-05-05T11:08:26.124Z,37.28
2023-05-05T11:11:13.450Z,39.57
2023-05-05T11:14:20.424Z,37.25
2023-05-05T11:17:05.712Z,37.49
2023-05-05T11:19:52.660Z,37.77
2023-05-05T11:22:56.673Z,37.11
2023-05-05T11:25:45.547Z,38.05
2023-05-05T11:28:32.733Z,38.07
2023-05-05T11:31:19.169Z,37.24
2023-05-05T11:34:28.144Z,38.16
2023-05-05T11:37:15.613Z,37.19
2023-05-05T11:40:07.452Z,37.73
2023-05-05T11:43:05.027Z,38.07
2023-05-05T11:46:09.040Z,38.22
2023-05-05T11:48:53.950Z,38.80
2023-05-05T11:51:39.144Z,39.19
2023-05-05T11:54:25.566Z,38.64
2023-05-05T11:57:11.758Z,39.30
2023-05-05T12:00:01.713Z,38.99
2023-05-05T12:02:46.925Z,38.65
2023-05-05T12:05:33.242Z,39.65
2023-05-05T12:08:20.173Z,39.28
2023-05-05T12:11:07.629Z,38.82
2023-05-05T12:14:08.382Z,38.97
2023-05-05T12:17:04.219Z,39.66
2023-05-05T12:19:54.430Z,40.04
2023-05-05T12:22:39.856Z,39.96
2023-05-05T12:25:26.839Z,39.02
2023-05-05T12:28:12.026Z,38.57
2023-05-05T12:30:58.698Z,39.09
2023-05-05T12:33:44.559Z,39.42
2023-05-05T12:36:30.729Z,38.90
2023-05-05T12:39:16.961Z,38.51
2023-05-05T12:42:03.288Z,38.00
2023-05-05T12:44:49.093Z,39.31
2023-05-05T12:47:35.515Z,38.17
2023-05-05T12:50:36.524Z,38.95
2023-05-05T12:53:23.269Z,36.52
2023-05-05T12:56:34.673Z,35.37
2023-05-05T12:59:22.811Z,35.45
2023-05-05T13:02:08.246Z,35.79
2023-05-05T13:04:54.286Z,35.64
2023-05-05T13:07:51.932Z,35.64
2023-05-05T13:10:37.165Z,35.40
2023-05-05T13:13:22.702Z,37.21
2023-05-05T13:16:07.501Z,37.70
2023-05-05T13:18:53.615Z,35.84
2023-05-05T13:21:38.441Z,35.00
2023-05-05T13:24:38.057Z,35.12
2023-05-05T13:27:28.084Z,36.02
2023-05-05T13:30:13.544Z,35.13
2023-05-05T13:32:59.420Z,35.08
2023-05-05T13:35:44.448Z,35.93
2023-05-05T13:38:29.547Z,35.48
2023-05-05T13:41:14.887Z,35.58
2023-05-05T13:43:59.628Z,36.35
2023-05-05T13:46:44.909Z,36.08
2023-05-05T13:49:29.942Z,36.27
2023-05-05T13:52:14.895Z,37.25
2023-05-05T13:55:00.594Z,38.07
2023-05-05T13:57:46.327Z,38.41
2023-05-05T14:00:31.583Z,37.97
2023-05-05T14:03:16.809Z,38.06
2023-05-05T14:06:01.976Z,39.40
2023-05-05T14:08:46.969Z,39.04
2023-05-05T14:11:31.795Z,39.64
2023-05-05T14:14:18.876Z,39.82
2023-05-05T14:17:03.902Z,39.37
2023-05-05T14:19:48.662Z,39.43
2023-05-05T14:22:33.863Z,39.65
2023-05-05T14:25:18.990Z,40.10
2023-05-05T14:28:04.548Z,40.26
2023-05-05T14:30:49.379Z,39.01
2023-05-05T14:33:34.171Z,39.78
2023-05-05T14:36:19.454Z,39.89
2023-05-05T14:39:04.894Z,39.38
2023-05-05T14:41:50.008Z,39.67
2023-05-05T14:44:34.870Z,41.02
2023-05-05T14:47:19.967Z,39.94
2023-05-05T14:50:07.431Z,41.02
2023-05-05T14:52:52.394Z,39.92
2023-05-05T14:55:37.430Z,39.85
2023-05-05T14:58:25.828Z,38.44
2023-05-05T15:01:11.342Z,39.20
2023-05-05T15:03:57.064Z,38.26
2023-05-05T15:06:42.114Z,38.11
2023-05-05T15:09:26.959Z,39.30
2023-05-05T15:12:11.776Z,38.83
2023-05-05T15:14:56.726Z,38.67
2023-05-05T15:17:41.845Z,38.10
2023-05-05T15:20:27.889Z,38.66
2023-05-05T15:23:12.946Z,38.66
2023-05-05T15:25:57.882Z,38.49
2023-05-05T15:28:42.892Z,38.82
2023-05-05T15:31:28.088Z,38.63
2023-05-05T15:34:13.266Z,38.49
2023-05-05T15:36:59.583Z,38.51
2023-05-05T15:39:44.436Z,38.72
2023-05-05T15:42:32.236Z,39.26
2023-05-05T15:45:17.004Z,39.99
2023-05-05T15:48:02.282Z,39.65
2023-05-05T15:50:47.351Z,39.88
2023-05-05T15:53:32.298Z,40.25
2023-05-05T15:56:17.298Z,39.87
2023-05-05T15:59:03.268Z,40.07
2023-05-05T16:01:49.627Z,40.19
2023-05-05T16:04:34.430Z,39.90
2023-05-05T16:07:19.624Z,40.55
2023-05-05T16:10:05.072Z,41.22
2023-05-05T16:12:52.015Z,41.00
2023-05-05T16:15:37.307Z,41.14
2023-05-05T16:18:22.368Z,41.87
2023-05-05T16:21:07.849Z,42.14
2023-05-05T16:23:53.027Z,42.09
2023-05-05T16:26:38.722Z,42.20
2023-05-05T16:29:23.987Z,43.00
2023-05-05T16:32:09.405Z,42.41
2023-05-05T16:34:54.997Z,42.75
2023-05-05T16:37:42.420Z,43.57
2023-05-05T16:40:27.266Z,44.01
2023-05-05T16:43:12.730Z,43.99
2023-05-05T16:45:57.583Z,44.57
2023-05-05T16:48:42.438Z,44.33
2023-05-05T16:51:28.888Z,44.26
2023-05-05T16:54:13.915Z,44.74
2023-05-05T16:56:58.797Z,44.99
2023-05-05T16:59:44.346Z,45.07
2023-05-05T17:02:31.248Z,44.93
2023-05-05T17:05:18.091Z,44.81
2023-05-05T17:08:03.776Z,45.10
2023-05-05T17:10:49.329Z,45.10
2023-05-05T17:13:34.158Z,45.92
2023-05-05T17:16:19.097Z,45.78
2023-05-05T17:19:04.204Z,46.09
2023-05-05T17:21:49.340Z,45.97
2023-05-05T17:24:34.686Z,46.07
2023-05-05T17:27:20.009Z,47.38
2023-05-05T17:30:05.490Z,49.18
2023-05-05T17:32:50.313Z,50.52
2023-05-05T17:35:35.283Z,53.18
2023-05-05T17:38:20.613Z,56.45
2023-05-05T17:41:06.286Z,58.38
2023-05-05T17:43:51.755Z,56.87
2023-05-05T17:46:37.801Z,56.45
2023-05-05T17:49:25.510Z,59.13
2023-05-05T17:52:11.109Z,60.50
2023-05-05T17:54:56.452Z,61.05
2023-05-05T17:57:41.786Z,62.66
2023-05-05T18:00:26.543Z,64.44
2023-05-05T18:03:11.654Z,67.39
2023-05-05T18:05:56.872Z,67.48
2023-05-05T18:08:44.473Z,70.38
2023-05-05T18:11:31.872Z,71.59
2023-05-05T18:14:19.898Z,72.21
2023-05-05T18:17:05.510Z,74.84
2023-05-05T18:19:50.573Z,74.25
2023-05-05T18:22:37.070Z,75.84
2023-05-05T18:25:22.145Z,77.15
2023-05-05T18:28:08.872Z,74.93
2023-05-05T18:30:56.558Z,77.34
2023-05-05T18:33:46.766Z,77.59
2023-05-05T18:36:34.027Z,79.43
2023-05-05T18:39:21.407Z,80.14
2023-05-05T18:42:08.006Z,82.33
2023-05-05T18:44:55.427Z,81.56
2023-05-05T18:47:41.326Z,82.51
2023-05-05T18:50:26.965Z,81.77
2023-05-05T18:53:14.980Z,82.87
2023-05-05T18:56:03.254Z,82.80
2023-05-05T18:58:48.048Z,83.89
2023-05-05T19:01:37.067Z,83.90
2023-05-05T19:04:30.770Z,83.18
2023-05-05T19:07:31.289Z,82.49
2023-05-05T19:10:20.485Z,84.29
2023-05-05T19:13:07.693Z,80.55
2023-05-05T19:15:54.547Z,84.36
2023-05-05T19:18:40.376Z,83.39
2023-05-05T19:21:27.544Z,84.75
2023-05-05T19:24:14.800Z,84.92
2023-05-05T19:27:03.512Z,82.61
2023-05-05T19:29:57.085Z,83.75
2023-05-05T19:32:42.530Z,82.51
2023-05-05T19:35:29.262Z,81.66
2023-05-05T19:38:14.880Z,83.33
2023-05-05T19:40:59.755Z,84.20
2023-05-05T19:43:50.842Z,84.29
2023-05-05T19:46:38.030Z,83.53
2023-05-05T19:49:23.487Z,85.52
2023-05-05T19:52:08.667Z,85.44
2023-05-05T19:54:53.584Z,85.48
2023-05-05T19:57:43.151Z,85.72
2023-05-05T20:00:30.906Z,86.99
2023-05-05T20:03:22.624Z,83.74
2023-05-05T20:06:07.709Z,86.45
2023-05-05T20:08:56.901Z,86.04
2023-05-05T20:11:42.291Z,86.04
2023-05-05T20:14:29.220Z,85.67
2023-05-05T20:17:17.270Z,86.07
2023-05-05T20:20:02.117Z,85.83
2023-05-05T20:22:49.555Z,86.23
2023-05-05T20:25:34.476Z,86.35
2023-05-05T20:28:20.583Z,86.74
2023-05-05T20:31:06.663Z,86.94
2023-05-05T20:33:51.532Z,86.37
2023-05-05T20:36:37.544Z,86.20
2023-05-05T20:39:23.963Z,87.60
2023-05-05T20:42:11.036Z,85.82
2023-05-05T20:44:56.232Z,83.25
2023-05-05T20:47:42.171Z,83.13
2023-05-05T20:50:28.399Z,84.83
2023-05-05T20:53:13.788Z,85.98
2023-05-05T20:55:58.811Z,85.95
2023-05-05T20:58:45.156Z,83.32
2023-05-05T21:01:31.169Z,82.70
2023-05-05T21:04:18.568Z,84.54
2023-05-05T21:07:03.617Z,81.92
2023-05-05T21:09:48.512Z,81.34
2023-05-05T21:12:34.055Z,79.39
2023-05-05T21:15:20.822Z,80.63
2023-05-05T21:18:06.197Z,84.38
2023-05-05T21:20:51.455Z,82.02
2023-05-05T21:23:36.465Z,83.73
2023-05-05T21:26:21.693Z,82.97
2023-05-05T21:29:06.883Z,84.03
2023-05-05T21:31:52.061Z,83.81
2023-05-05T21:34:38.383Z,82.22
2023-05-05T21:37:23.297Z,80.38
2023-05-05T21:40:14.111Z,78.43
2023-05-05T21:43:00.508Z,77.96
2023-05-05T21:45:47.079Z,79.21
2023-05-05T21:48:32.523Z,80.06
2023-05-05T21:51:17.947Z,80.49
2023-05-05T21:54:02.984Z,82.97
2023-05-05T21:56:49.503Z,80.88
2023-05-05T21:59:34.651Z,79.66
2023-05-05T22:02:19.944Z,78.04
2023-05-05T22:05:05.647Z,80.01
2023-05-05T22:07:50.535Z,79.99
2023-05-05T22:10:35.644Z,81.55
2023-05-05T22:13:20.798Z,79.39
2023-05-05T22:16:10.998Z,79.57
2023-05-05T22:18:56.024Z,80.25
2023-05-05T22:21:42.573Z,76.33
2023-05-05T22:24:28.256Z,76.81
2023-05-05T22:27:13.287Z,79.04
2023-05-05T22:29:58.564Z,76.96
2023-05-05T22:32:43.444Z,75.42
2023-05-05T22:35:28.413Z,73.60
2023-05-05T22:38:13.267Z,72.44
2023-05-05T22:40:58.122Z,72.63
2023-05-05T22:43:42.931Z,77.10
2023-05-05T22:46:27.931Z,77.88
2023-05-05T22:49:13.042Z,78.38
2023-05-05T22:51:58.590Z,79.62
2023-05-05T22:54:43.734Z,82.28
2023-05-05T22:57:28.669Z,82.06
2023-05-05T23:00:14.476Z,82.03
2023-05-05T23:02:59.651Z,83.89
2023-05-05T23:05:44.775Z,83.78
2023-05-05T23:08:30.055Z,85.24
2023-05-05T23:11:16.891Z,86.36
2023-05-05T23:14:01.728Z,87.41
2023-05-05T23:16:47.082Z,86.52
2023-05-05T23:19:32.600Z,86.16
2023-05-05T23:22:18.045Z,85.48
2023-05-05T23:25:03.154Z,86.25
2023-05-05T23:27:48.931Z,85.72
2023-05-05T23:30:34.165Z,86.14
2023-05-05T23:33:19.370Z,86.91
2023-05-05T23:36:05.016Z,87.11
2023-05-05T23:38:50.237Z,87.75
2023-05-05T23:41:35.205Z,88.75
2023-05-05T23:44:20.336Z,87.23
2023-05-05T23:47:05.252Z,85.69
2023-05-05T23:49:51.476Z,80.61
2023-05-05T23:52:36.620Z,83.08
2023-05-05T23:55:21.660Z,80.51
2023-05-05T23:58:06.948Z,75.12
